createdAt,value
2023-05-05T00:01:12.378Z,14.93
2023-05-05T00:03:18.269Z,14.43
2023-05-05T00:05:24.663Z,13.95
2023-05-05T00:07:29.706Z,11.80
2023-05-05T00:09:37.371Z,14.93
2023-05-05T00:11:42.403Z,17.25
2023-05-05T00:13:47.862Z,16.98
2023-05-05T00:15:55.322Z,24.70
2023-05-05T00:18:00.405Z,16.15
2023-05-05T00:20:05.660Z,15.57
2023-05-05T00:22:11.186Z,14.63
2023-05-05T00:24:16.288Z,14.55
2023-05-05T00:26:24.110Z,13.85
2023-05-05T00:28:31.057Z,15.15
2023-05-05T00:30:37.522Z,12.95
2023-05-05T00:32:43.136Z,13.02
2023-05-05T00:34:48.196Z,12.80
2023-05-05T00:36:53.495Z,15.05
2023-05-05T00:38:58.623Z,13.98
2023-05-05T00:41:03.804Z,14.45
2023-05-05T00:43:13.102Z,11.40
2023-05-05T00:45:19.969Z,11.90
2023-05-05T00:47:25.049Z,12.52
2023-05-05T00:49:30.222Z,15.43
2023-05-05T00:51:35.709Z,19.15
2023-05-05T00:53:43.392Z,13.13
2023-05-05T00:55:48.541Z,19.25
2023-05-05T00:57:53.804Z,13.20
2023-05-05T01:00:03.143Z,12.05
2023-05-05T01:02:08.334Z,12.63
2023-05-05T01:04:13.370Z,12.65
2023-05-05T01:06:48.617Z,11.98
2023-05-05T01:09:07.760Z,10.27
2023-05-05T01:11:22.634Z,14.73
2023-05-05T01:13:35.390Z,15.93
2023-05-05T01:15:53.610Z,13.38
2023-05-05T01:18:05.921Z,12.23
2023-05-05T01:20:23.687Z,12.23
2023-05-05T01:22:39.228Z,12.90
2023-05-05T01:25:00.191Z,16.50
2023-05-05T01:27:41.471Z,18.17
2023-05-05T01:30:13.585Z,13.82
2023-05-05T01:32:28.539Z,20.95
2023-05-05T01:34:41.793Z,21.50
2023-05-05T01:39:03.600Z,14.43
2023-05-05T01:41:18.198Z,13.27
2023-05-05T01:43:26.378Z,19.77
2023-05-05T01:45:36.368Z,14.20
2023-05-05T01:47:46.881Z,16.50
2023-05-05T01:49:53.887Z,13.18
2023-05-05T01:52:00.331Z,14.30
2023-05-05T01:54:10.785Z,13.85
2023-05-05T01:56:18.118Z,13.38
2023-05-05T01:58:26.272Z,13.52
2023-05-05T02:00:33.403Z,14.90
2023-05-05T02:02:40.526Z,11.45
2023-05-05T02:04:48.772Z,11.98
2023-05-05T02:06:56.474Z,22.00
2023-05-05T02:09:03.947Z,17.02
2023-05-05T02:11:12.054Z,11.05
2023-05-05T02:13:18.747Z,16.33
2023-05-05T02:15:26.417Z,13.20
2023-05-05T02:17:33.154Z,15.25
2023-05-05T02:19:44.689Z,15.35
2023-05-05T02:21:52.872Z,17.83
2023-05-05T02:23:57.955Z,15.23
2023-05-05T02:26:09.994Z,13.82
2023-05-05T02:28:24.149Z,17.98
2023-05-05T02:30:32.500Z,13.98
2023-05-05T02:32:42.602Z,17.48
2023-05-05T02:34:50.872Z,15.23
2023-05-05T02:37:03.905Z,12.05
2023-05-05T02:39:17.161Z,12.10
2023-05-05T02:41:25.368Z,11.45
2023-05-05T02:43:34.464Z,15.40
2023-05-05T02:45:39.868Z,11.50
2023-05-05T02:47:45.198Z,10.95
2023-05-05T02:49:50.413Z,16.70
2023-05-05T02:51:58.361Z,20.48
2023-05-05T02:54:07.786Z,12.32
2023-05-05T02:56:29.188Z,15.80
2023-05-05T02:58:46.328Z,14.20
2023-05-05T03:01:07.574Z,15.40
2023-05-05T03:03:21.082Z,15.73
2023-05-05T03:05:37.675Z,19.40
2023-05-05T03:07:54.142Z,14.52
2023-05-05T03:10:09.913Z,16.83
2023-05-05T03:12:25.383Z,25.50
2023-05-05T03:14:45.785Z,17.85
2023-05-05T03:16:57.474Z,16.98
2023-05-05T03:19:04.628Z,21.73
2023-05-05T03:21:11.889Z,20.75
2023-05-05T03:23:23.363Z,21.73
2023-05-05T03:25:47.284Z,18.30
2023-05-05T03:28:05.054Z,17.10
2023-05-05T03:30:12.687Z,17.45
2023-05-05T03:32:25.735Z,14.25
2023-05-05T03:34:33.486Z,17.52
2023-05-05T03:36:42.305Z,15.52
2023-05-05T03:38:52.813Z,14.82
2023-05-05T03:40:59.136Z,13.45
2023-05-05T03:43:04.845Z,18.58
2023-05-05T03:45:12.055Z,12.23
2023-05-05T03:47:17.978Z,15.07
2023-05-05T03:49:23.716Z,12.00
2023-05-05T03:51:30.120Z,11.77
2023-05-05T03:53:36.551Z,15.18
2023-05-05T03:55:47.103Z,11.63
2023-05-05T03:57:52.123Z,15.23
2023-05-05T03:59:57.176Z,14.35
2023-05-05T04:02:02.227Z,12.43
2023-05-05T04:04:09.587Z,12.75
2023-05-05T04:06:14.920Z,10.93
2023-05-05T04:08:20.322Z,13.73
2023-05-05T04:10:25.741Z,15.45
2023-05-05T04:12:33.874Z,13.55
2023-05-05T04:14:39.425Z,15.18
2023-05-05T04:16:44.717Z,13.77
2023-05-05T04:18:50.433Z,13.45
2023-05-05T04:20:56.198Z,13.45
2023-05-05T04:23:01.445Z,13.00
2023-05-05T04:25:07.158Z,14.48
2023-05-05T04:27:12.255Z,13.30
2023-05-05T04:29:20.732Z,18.05
2023-05-05T04:31:26.160Z,17.60
2023-05-05T04:33:31.272Z,17.15
2023-05-05T04:35:36.868Z,18.90
2023-05-05T04:37:41.985Z,16.00
2023-05-05T04:39:47.840Z,16.23
2023-05-05T04:41:53.198Z,17.38
2023-05-05T04:43:58.552Z,14.40
2023-05-05T04:46:08.190Z,16.00
2023-05-05T04:48:14.599Z,13.77
2023-05-05T04:50:20.025Z,10.82
2023-05-05T04:52:25.944Z,11.95
2023-05-05T04:54:31.065Z,16.42
2023-05-05T04:56:36.455Z,12.65
2023-05-05T04:58:41.544Z,14.00
2023-05-05T05:00:46.735Z,13.65
2023-05-05T05:02:55.263Z,11.85
2023-05-05T05:05:00.341Z,12.70
2023-05-05T05:07:05.666Z,16.40
2023-05-05T05:09:10.724Z,14.65
2023-05-05T05:11:15.990Z,16.20
2023-05-05T05:13:21.300Z,17.25
2023-05-05T05:15:26.714Z,16.20
2023-05-05T05:17:33.364Z,14.73
2023-05-05T05:19:41.980Z,21.02
2023-05-05T05:21:47.373Z,15.88
2023-05-05T05:23:52.403Z,14.88
2023-05-05T05:25:58.038Z,21.30
2023-05-05T05:28:10.267Z,15.20
2023-05-05T05:30:20.922Z,14.15
2023-05-05T05:32:26.776Z,16.63
2023-05-05T05:34:31.841Z,21.83
2023-05-05T05:36:40.223Z,18.30
2023-05-05T05:38:45.535Z,15.68
2023-05-05T05:40:51.009Z,14.57
2023-05-05T05:42:56.539Z,23.00
2023-05-05T05:45:03.299Z,17.38
2023-05-05T05:47:09.179Z,13.93
2023-05-05T05:49:14.286Z,14.65
2023-05-05T05:51:19.366Z,16.20
2023-05-05T05:53:28.353Z,16.08
2023-05-05T05:55:34.122Z,20.02
2023-05-05T05:57:40.364Z,15.43
2023-05-05T05:59:47.313Z,12.80
2023-05-05T06:01:52.424Z,17.35
2023-05-05T06:03:57.717Z,18.35
2023-05-05T06:06:03.071Z,15.52
2023-05-05T06:08:08.868Z,14.90
2023-05-05T06:10:28.098Z,14.52
2023-05-05T06:12:39.228Z,16.17
2023-05-05T06:14:44.387Z,15.30
2023-05-05T06:16:49.772Z,15.60
2023-05-05T06:18:59.054Z,18.23
2023-05-05T06:21:04.916Z,19.58
2023-05-05T06:23:11.090Z,16.67
2023-05-05T06:25:23.196Z,13.88
2023-05-05T06:27:29.264Z,16.42
2023-05-05T06:29:34.413Z,14.00
2023-05-05T06:31:39.600Z,9.85
2023-05-05T06:33:44.657Z,14.70
2023-05-05T06:35:49.865Z,15.20
2023-05-05T06:37:55.140Z,13.55
2023-05-05T06:40:00.756Z,17.27
2023-05-05T06:42:08.531Z,14.57
2023-05-05T06:44:13.854Z,13.40
2023-05-05T06:46:18.937Z,12.88
2023-05-05T06:48:24.748Z,13.63
2023-05-05T06:50:29.998Z,14.85
2023-05-05T06:52:35.015Z,15.95
2023-05-05T06:54:40.252Z,12.38
2023-05-05T06:56:45.248Z,11.52
2023-05-05T06:58:52.886Z,13.05
2023-05-05T07:00:58.217Z,12.45
2023-05-05T07:03:03.333Z,11.65
2023-05-05T07:05:09.846Z,13.75
2023-05-05T07:07:14.914Z,14.98
2023-05-05T07:09:20.450Z,9.23
2023-05-05T07:11:25.455Z,10.77
2023-05-05T07:13:30.490Z,9.02
2023-05-05T07:15:38.480Z,9.40
2023-05-05T07:17:43.974Z,12.18
2023-05-05T07:19:49.324Z,12.55
2023-05-05T07:21:54.750Z,13.07
2023-05-05T07:23:59.810Z,10.88
2023-05-05T07:26:05.167Z,12.00
2023-05-05T07:28:10.204Z,9.27
2023-05-05T07:30:18.413Z,11.70
2023-05-05T07:32:26.602Z,13.27
2023-05-05T07:34:34.400Z,11.38
2023-05-05T07:36:39.594Z,11.93
2023-05-05T07:38:44.873Z,11.95
2023-05-05T07:40:50.693Z,11.10
2023-05-05T07:42:55.716Z,10.32
2023-05-05T07:45:00.906Z,12.48
2023-05-05T07:47:05.977Z,10.55
2023-05-05T07:49:13.693Z,11.65
2023-05-05T07:51:19.210Z,11.27
2023-05-05T07:53:24.913Z,9.10
2023-05-05T07:55:30.047Z,10.55
2023-05-05T07:57:35.071Z,10.30
2023-05-05T07:59:43.446Z,12.00
2023-05-05T08:01:48.690Z,9.27
2023-05-05T08:03:53.851Z,11.30
2023-05-05T08:06:11.324Z,9.50
2023-05-05T08:08:16.381Z,10.38
2023-05-05T08:10:22.081Z,12.65
2023-05-05T08:12:27.088Z,12.07
2023-05-05T08:14:32.202Z,12.55
2023-05-05T08:16:37.322Z,10.60
2023-05-05T08:18:43.032Z,9.55
2023-05-05T08:20:48.354Z,11.13
2023-05-05T08:22:56.684Z,10.40
2023-05-05T08:25:02.246Z,9.35
2023-05-05T08:27:07.428Z,10.43
2023-05-05T08:29:12.506Z,8.45
2023-05-05T08:31:18.483Z,10.30
2023-05-05T08:33:23.624Z,9.10
2023-05-05T08:35:28.644Z,10.18
2023-05-05T08:37:33.913Z,10.88
2023-05-05T08:39:41.544Z,12.32
2023-05-05T08:41:47.065Z,8.73
2023-05-05T08:43:52.561Z,8.68
2023-05-05T08:45:58.835Z,7.93
2023-05-05T08:48:06.277Z,8.13
2023-05-05T08:50:14.697Z,12.90
2023-05-05T08:52:25.324Z,10.98
2023-05-05T08:54:33.512Z,10.65
2023-05-05T08:56:43.712Z,8.90
2023-05-05T08:58:49.887Z,10.30
2023-05-05T09:00:57.012Z,8.02
2023-05-05T09:03:04.011Z,9.45
2023-05-05T09:05:11.378Z,11.10
2023-05-05T09:07:16.710Z,12.90
2023-05-05T09:09:22.995Z,10.07
2023-05-05T09:11:28.249Z,11.65
2023-05-05T09:13:36.315Z,13.23
2023-05-05T09:15:42.298Z,8.02
2023-05-05T09:17:47.423Z,8.65
2023-05-05T09:20:12.099Z,8.50
2023-05-05T09:22:17.199Z,9.15
2023-05-05T09:24:22.312Z,7.80
2023-05-05T09:26:27.321Z,9.93
2023-05-05T09:28:35.264Z,10.60
2023-05-05T09:30:41.339Z,13.07
2023-05-05T09:32:49.067Z,9.75
2023-05-05T09:35:01.806Z,8.73
2023-05-05T09:37:07.444Z,10.77
2023-05-05T09:39:12.791Z,12.02
2023-05-05T09:41:18.171Z,9.23
2023-05-05T09:43:25.627Z,8.43
2023-05-05T09:45:33.807Z,9.13
2023-05-05T09:47:40.084Z,10.38
2023-05-05T09:49:45.192Z,7.80
2023-05-05T09:51:52.042Z,9.55
2023-05-05T09:53:57.074Z,8.90
2023-05-05T09:56:04.290Z,8.70
2023-05-05T09:58:21.745Z,8.27
2023-05-05T10:00:43.532Z,9.63
2023-05-05T10:02:48.915Z,8.60
2023-05-05T10:05:06.977Z,10.43
2023-05-05T10:07:25.034Z,8.75
2023-05-05T10:09:31.835Z,9.43
2023-05-05T10:11:38.794Z,10.82
2023-05-05T10:13:44.351Z,11.65
2023-05-05T10:15:54.541Z,10.18
2023-05-05T10:18:06.869Z,9.50
2023-05-05T10:20:16.641Z,8.38
2023-05-05T10:22:26.364Z,12.63
2023-05-05T10:24:42.150Z,9.02
2023-05-05T10:26:49.291Z,10.32
2023-05-05T10:28:59.791Z,7.05
2023-05-05T10:31:24.259Z,6.32
2023-05-05T10:33:40.690Z,9.80
2023-05-05T10:35:50.135Z,7.60
2023-05-05T10:37:57.831Z,7.57
2023-05-05T10:40:04.969Z,8.30
2023-05-05T10:42:10.476Z,7.82
2023-05-05T10:44:16.538Z,10.68
2023-05-05T10:46:24.864Z,7.80
2023-05-05T10:48:43.287Z,8.80
2023-05-05T10:50:55.570Z,7.53
2023-05-05T10:53:14.069Z,9.30
2023-05-05T10:55:21.504Z,5.60
2023-05-05T10:57:30.277Z,7.90
2023-05-05T10:59:47.825Z,6.18
2023-05-05T11:01:55.577Z,8.23
2023-05-05T11:04:19.715Z,9.80
2023-05-05T11:06:24.964Z,8.85
2023-05-05T11:08:30.353Z,5.90
2023-05-05T11:10:47.701Z,5.15
2023-05-05T11:13:22.715Z,6.25
2023-05-05T11:15:38.300Z,3.50
2023-05-05T11:17:52.471Z,5.10
2023-05-05T11:19:57.564Z,5.78
2023-05-05T11:22:04.028Z,6.57
2023-05-05T11:24:31.914Z,3.85
2023-05-05T11:26:54.387Z,6.68
2023-05-05T11:29:05.850Z,3.93
2023-05-05T11:31:22.028Z,4.40
2023-05-05T11:33:31.353Z,5.30
2023-05-05T11:36:06.544Z,5.28
2023-05-05T11:38:13.087Z,6.28
2023-05-05T11:40:26.083Z,6.18
2023-05-05T11:44:38.386Z,6.32
2023-05-05T11:46:44.586Z,6.68
2023-05-05T11:48:53.689Z,4.50
2023-05-05T11:50:58.887Z,5.93
2023-05-05T11:53:04.295Z,4.30
2023-05-05T11:58:22.820Z,5.03
2023-05-05T12:00:36.928Z,7.07
2023-05-05T12:02:42.111Z,8.57
2023-05-05T12:04:50.777Z,6.13
2023-05-05T12:06:56.979Z,4.57
2023-05-05T12:09:02.280Z,5.32
2023-05-05T12:11:09.860Z,7.18
2023-05-05T12:13:22.313Z,7.07
2023-05-05T12:15:37.385Z,3.35
2023-05-05T12:17:46.249Z,4.13
2023-05-05T12:19:56.032Z,7.13
2023-05-05T12:22:01.188Z,3.28
2023-05-05T12:24:06.977Z,6.43
2023-05-05T12:26:27.355Z,5.55
2023-05-05T12:28:47.058Z,5.45
2023-05-05T12:30:59.881Z,5.38
2023-05-05T12:33:06.574Z,8.10
2023-05-05T12:35:17.371Z,7.20
2023-05-05T12:37:23.312Z,4.90
2023-05-05T12:39:37.940Z,6.03
2023-05-05T12:41:43.293Z,4.85
2023-05-05T12:43:48.759Z,8.45
2023-05-05T12:46:07.130Z,6.30
2023-05-05T12:48:27.382Z,5.30
2023-05-05T12:50:36.201Z,6.53
2023-05-05T12:52:46.486Z,5.72
2023-05-05T12:54:59.261Z,6.10
2023-05-05T12:57:15.051Z,5.50
2023-05-05T12:59:33.069Z,6.65
2023-05-05T13:01:39.241Z,6.82
2023-05-05T13:03:44.852Z,5.05
2023-05-05T13:05:52.524Z,5.15
2023-05-05T13:07:57.850Z,6.25
2023-05-05T13:10:12.426Z,5.82
2023-05-05T13:12:18.376Z,3.97
2023-05-05T13:14:24.290Z,4.47
2023-05-05T13:16:30.111Z,4.30
2023-05-05T13:18:35.171Z,4.97
2023-05-05T13:20:40.303Z,5.97
2023-05-05T13:22:47.973Z,2.95
2023-05-05T13:24:53.107Z,6.82
2023-05-05T13:26:58.663Z,5.05
2023-05-05T13:29:04.438Z,7.07
2023-05-05T13:31:10.584Z,5.15
2023-05-05T13:33:16.064Z,5.40
2023-05-05T13:35:21.271Z,3.28
2023-05-05T13:37:26.587Z,4.18
2023-05-05T13:39:34.471Z,2.65
2023-05-05T13:41:39.904Z,3.65
2023-05-05T13:43:45.514Z,4.80
2023-05-05T13:45:50.611Z,4.18
2023-05-05T13:47:57.405Z,3.90
2023-05-05T13:50:02.616Z,5.57
2023-05-05T13:52:08.286Z,3.55
2023-05-05T13:54:13.736Z,4.68
2023-05-05T13:56:23.588Z,5.65
2023-05-05T13:58:29.254Z,4.55
2023-05-05T14:00:34.830Z,4.47
2023-05-05T14:02:39.983Z,4.80
2023-05-05T14:04:45.273Z,6.47
2023-05-05T14:06:50.393Z,5.80
2023-05-05T14:08:55.773Z,2.95
2023-05-05T14:11:02.013Z,7.82
2023-05-05T14:13:10.067Z,7.63
2023-05-05T14:15:15.239Z,5.45
2023-05-05T14:17:20.317Z,5.25
2023-05-05T14:19:25.714Z,3.92
2023-05-05T14:21:31.798Z,6.28
2023-05-05T14:23:37.296Z,3.67
2023-05-05T14:25:42.789Z,3.15
2023-05-05T14:27:47.903Z,4.63
2023-05-05T14:29:55.963Z,5.72
2023-05-05T14:32:01.181Z,3.75
2023-05-05T14:34:06.841Z,3.60
2023-05-05T14:36:12.440Z,2.22
2023-05-05T14:38:17.558Z,5.53
2023-05-05T14:40:22.849Z,3.33
2023-05-05T14:42:28.488Z,2.25
2023-05-05T14:44:33.814Z,3.30
2023-05-05T14:46:42.274Z,5.53
2023-05-05T14:48:49.135Z,4.10
2023-05-05T14:50:54.500Z,2.05
2023-05-05T14:52:59.581Z,4.13
2023-05-05T14:55:04.748Z,3.42
2023-05-05T14:57:09.865Z,3.97
2023-05-05T14:59:15.098Z,3.55
2023-05-05T15:01:20.836Z,6.70
2023-05-05T15:03:29.055Z,4.40
2023-05-05T15:05:34.229Z,5.30
2023-05-05T15:07:40.192Z,3.33
2023-05-05T15:09:45.284Z,4.57
2023-05-05T15:11:50.613Z,4.35
2023-05-05T15:13:55.687Z,3.22
2023-05-05T15:16:01.016Z,2.95
2023-05-05T15:18:06.583Z,3.85
2023-05-05T15:20:15.338Z,3.42
2023-05-05T15:22:20.824Z,4.82
2023-05-05T15:24:26.153Z,6.38
2023-05-05T15:26:31.406Z,5.50
2023-05-05T15:28:36.524Z,2.97
2023-05-05T15:30:41.615Z,5.43
2023-05-05T15:32:46.900Z,3.47
2023-05-05T15:34:52.102Z,4.38
2023-05-05T15:36:59.765Z,3.97
2023-05-05T15:39:04.846Z,4.32
2023-05-05T15:41:10.081Z,3.17
2023-05-05T15:43:15.403Z,3.90
2023-05-05T15:45:20.794Z,9.45
2023-05-05T15:47:25.872Z,5.72
2023-05-05T15:49:30.959Z,5.13
2023-05-05T15:51:36.512Z,3.65
2023-05-05T15:53:44.197Z,3.55
2023-05-05T15:55:49.280Z,7.43
2023-05-05T15:57:54.371Z,4.63
2023-05-05T15:59:59.711Z,5.70
2023-05-05T16:02:05.307Z,6.80
2023-05-05T16:04:10.802Z,4.53
2023-05-05T16:06:16.012Z,3.88
2023-05-05T16:08:21.058Z,4.80
2023-05-05T16:10:28.864Z,5.53
2023-05-05T16:12:34.071Z,4.22
2023-05-05T16:14:39.389Z,6.78
2023-05-05T16:16:44.479Z,9.80
2023-05-05T16:18:49.704Z,4.68
2023-05-05T16:20:54.783Z,3.42
2023-05-05T16:23:00.047Z,4.15
2023-05-05T16:25:05.221Z,4.00
2023-05-05T16:27:12.881Z,5.05
2023-05-05T16:29:18.039Z,5.70
2023-05-05T16:31:23.216Z,4.38
2023-05-05T16:33:28.738Z,3.13
2023-05-05T16:35:33.799Z,5.00
2023-05-05T16:37:39.142Z,6.53
2023-05-05T16:39:44.210Z,4.15
2023-05-05T16:41:49.539Z,4.57
2023-05-05T16:43:57.276Z,5.95
2023-05-05T16:46:02.399Z,3.95
2023-05-05T16:48:09.375Z,5.78
2023-05-05T16:50:15.460Z,5.20
2023-05-05T16:52:20.925Z,5.28
2023-05-05T16:54:26.018Z,4.57
2023-05-05T16:56:31.067Z,5.57
2023-05-05T16:58:36.156Z,4.97
2023-05-05T17:00:46.783Z,4.88
2023-05-05T17:02:52.115Z,4.15
2023-05-05T17:04:57.259Z,4.53
2023-05-05T17:07:02.432Z,2.88
2023-05-05T17:09:07.677Z,4.40
2023-05-05T17:11:12.968Z,5.10
2023-05-05T17:13:19.325Z,6.25
2023-05-05T17:15:24.622Z,8.10
2023-05-05T17:17:32.303Z,5.55
2023-05-05T17:19:37.401Z,3.65
2023-05-05T17:21:42.978Z,6.25
2023-05-05T17:23:48.130Z,6.28
2023-05-05T17:25:53.207Z,12.40
2023-05-05T17:27:59.064Z,4.78
2023-05-05T17:30:04.138Z,5.80
2023-05-05T17:32:09.704Z,7.60
2023-05-05T17:34:17.739Z,5.30
2023-05-05T17:36:23.148Z,3.72
2023-05-05T17:38:28.260Z,7.95
2023-05-05T17:40:33.384Z,6.85
2023-05-05T17:42:39.120Z,8.23
2023-05-05T17:44:46.350Z,5.93
2023-05-05T17:46:52.557Z,8.52
2023-05-05T17:48:57.719Z,6.43
2023-05-05T17:51:05.469Z,10.55
2023-05-05T17:53:10.815Z,6.93
2023-05-05T17:55:15.989Z,16.52
2023-05-05T17:57:23.104Z,11.82
2023-05-05T17:59:28.297Z,9.85
2023-05-05T18:01:33.647Z,9.63
2023-05-05T18:03:40.689Z,7.00
2023-05-05T18:05:46.276Z,6.53
2023-05-05T18:07:53.984Z,7.22
2023-05-05T18:09:59.040Z,9.38
2023-05-05T18:12:04.370Z,10.52
2023-05-05T18:14:10.809Z,10.25
2023-05-05T18:16:16.182Z,12.05
2023-05-05T18:18:21.369Z,13.05
2023-05-05T18:20:26.861Z,8.30
2023-05-05T18:22:32.198Z,7.03
2023-05-05T18:24:39.841Z,7.47
2023-05-05T18:26:45.312Z,16.55
2023-05-05T18:28:50.380Z,8.18
2023-05-05T18:30:56.306Z,10.38
2023-05-05T18:33:01.968Z,7.95
2023-05-05T18:35:08.456Z,5.65
2023-05-05T18:37:14.201Z,7.68
2023-05-05T18:39:19.315Z,9.38
2023-05-05T18:41:27.374Z,11.88
2023-05-05T18:43:33.463Z,7.22
2023-05-05T18:45:38.603Z,8.25
2023-05-05T18:47:44.014Z,9.55
2023-05-05T18:49:49.891Z,8.25
2023-05-05T18:51:55.914Z,11.45
2023-05-05T18:54:01.165Z,9.38
2023-05-05T18:56:06.293Z,7.03
2023-05-05T18:58:15.414Z,10.23
2023-05-05T19:00:21.092Z,10.50
2023-05-05T19:02:26.209Z,12.50
2023-05-05T19:04:32.297Z,9.48
2023-05-05T19:06:37.417Z,16.10
2023-05-05T19:08:43.354Z,11.98
2023-05-05T19:10:48.919Z,12.20
2023-05-05T19:12:55.951Z,20.65
2023-05-05T19:15:04.103Z,12.52
2023-05-05T19:17:09.567Z,15.30
2023-05-05T19:19:15.072Z,9.75
2023-05-05T19:21:20.166Z,11.50
2023-05-05T19:23:25.528Z,9.07
2023-05-05T19:25:30.657Z,7.93
2023-05-05T19:27:37.116Z,19.80
2023-05-05T19:29:42.381Z,8.65
2023-05-05T19:31:50.066Z,8.45
2023-05-05T19:33:55.712Z,8.20
2023-05-05T19:36:00.757Z,10.55
2023-05-05T19:38:05.958Z,9.27
2023-05-05T19:40:13.256Z,15.00
2023-05-05T19:42:19.686Z,10.85
2023-05-05T19:44:25.297Z,16.40
2023-05-05T19:46:30.517Z,17.25
2023-05-05T19:48:38.519Z,10.93
2023-05-05T19:50:43.607Z,11.63
2023-05-05T19:52:48.945Z,10.07
2023-05-05T19:54:54.225Z,11.75
2023-05-05T19:57:00.822Z,11.20
2023-05-05T19:59:08.128Z,11.45
2023-05-05T20:01:13.444Z,10.52
2023-05-05T20:03:18.928Z,9.07
2023-05-05T20:05:27.195Z,9.30
2023-05-05T20:07:32.324Z,9.27
2023-05-05T20:09:38.094Z,11.10
2023-05-05T20:11:44.181Z,10.88
2023-05-05T20:13:49.556Z,14.23
2023-05-05T20:15:54.955Z,12.13
2023-05-05T20:18:00.163Z,10.25
2023-05-05T20:20:05.566Z,9.50
2023-05-05T20:22:13.191Z,12.10
2023-05-05T20:24:19.710Z,13.73
2023-05-05T20:26:24.894Z,12.48
2023-05-05T20:28:29.982Z,13.60
2023-05-05T20:30:35.066Z,12.32
2023-05-05T20:32:40.397Z,12.07
2023-05-05T20:34:45.742Z,11.68
2023-05-05T20:36:50.857Z,11.73
2023-05-05T20:38:58.508Z,8.77
2023-05-05T20:41:03.570Z,11.70
2023-05-05T20:43:08.666Z,13.45
2023-05-05T20:45:14.969Z,10.15
2023-05-05T20:47:20.036Z,12.10
2023-05-05T20:49:25.332Z,15.90
2023-05-05T20:51:34.277Z,12.70
2023-05-05T20:53:39.721Z,10.10
2023-05-05T20:55:49.926Z,10.30
2023-05-05T20:57:55.023Z,13.65
2023-05-05T21:00:00.155Z,13.85
2023-05-05T21:02:05.310Z,10.15
2023-05-05T21:04:10.982Z,9.90
2023-05-05T21:06:16.102Z,12.07
2023-05-05T21:08:21.385Z,11.48
2023-05-05T21:10:26.903Z,10.07
2023-05-05T21:12:36.208Z,12.52
2023-05-05T21:14:46.446Z,14.00
2023-05-05T21:16:51.540Z,11.25
2023-05-05T21:18:56.609Z,13.52
2023-05-05T21:21:01.695Z,15.45
2023-05-05T21:23:06.942Z,11.88
2023-05-05T21:25:17.758Z,9.88
2023-05-05T21:27:23.385Z,13.05
2023-05-05T21:29:34.387Z,11.52
2023-05-05T21:31:40.524Z,11.00
2023-05-05T21:33:46.336Z,11.15
2023-05-05T21:35:51.381Z,11.45
2023-05-05T21:37:56.426Z,14.35
2023-05-05T21:40:01.490Z,12.25
2023-05-05T21:42:07.226Z,10.40
2023-05-05T21:44:12.308Z,11.00
2023-05-05T21:46:20.731Z,13.75
2023-05-05T21:48:25.925Z,9.68
2023-05-05T21:50:31.101Z,17.92
2023-05-05T21:52:36.369Z,16.88
2023-05-05T21:54:41.596Z,11.70
2023-05-05T21:56:46.749Z,11.65
2023-05-05T21:58:51.832Z,10.27
2023-05-05T22:00:56.845Z,11.52
2023-05-05T22:03:04.954Z,13.80
2023-05-05T22:05:12.038Z,20.20
2023-05-05T22:07:17.179Z,12.98
2023-05-05T22:09:22.453Z,10.82
2023-05-05T22:11:27.493Z,13.05
2023-05-05T22:13:32.754Z,14.20
2023-05-05T22:15:45.925Z,10.13
2023-05-05T22:17:52.737Z,10.18
2023-05-05T22:20:00.403Z,12.43
2023-05-05T22:22:05.540Z,9.82
2023-05-05T22:24:11.189Z,12.38
2023-05-05T22:26:16.254Z,12.77
2023-05-05T22:28:21.727Z,16.42
2023-05-05T22:30:27.048Z,10.85
2023-05-05T22:32:32.421Z,16.50
2023-05-05T22:34:38.017Z,14.88
2023-05-05T22:36:45.597Z,13.18
2023-05-05T22:38:50.872Z,16.55
2023-05-05T22:40:55.899Z,13.27
2023-05-05T22:43:01.828Z,14.30
2023-05-05T22:45:08.971Z,15.30
2023-05-05T22:47:14.259Z,20.58
2023-05-05T22:49:19.763Z,12.82
2023-05-05T22:51:25.023Z,17.48
2023-05-05T22:53:32.882Z,16.17
2023-05-05T22:55:38.291Z,15.82
2023-05-05T22:57:44.089Z,15.65
2023-05-05T22:59:49.222Z,13.20
2023-05-05T23:01:54.242Z,14.05
2023-05-05T23:03:59.597Z,22.08
2023-05-05T23:06:04.853Z,15.63
2023-05-05T23:08:09.935Z,16.00
2023-05-05T23:10:17.774Z,11.63
2023-05-05T23:12:22.840Z,13.65
2023-05-05T23:14:27.870Z,18.20
2023-05-05T23:16:33.196Z,14.77
2023-05-05T23:18:39.295Z,18.75
2023-05-05T23:20:44.305Z,14.70
2023-05-05T23:22:49.355Z,15.43
2023-05-05T23:24:54.670Z,16.30
2023-05-05T23:27:04.606Z,18.13
2023-05-05T23:29:09.656Z,23.75
2023-05-05T23:31:14.758Z,12.88
2023-05-05T23:33:19.818Z,13.40
2023-05-05T23:35:24.846Z,15.52
2023-05-05T23:37:30.128Z,11.55
2023-05-05T23:39:36.936Z,12.63
2023-05-05T23:41:41.967Z,13.65
2023-05-05T23:43:49.813Z,11.27
2023-05-05T23:45:55.083Z,14.75
2023-05-05T23:48:00.431Z,10.57
2023-05-05T23:50:05.926Z,17.05
2023-05-05T23:52:11.044Z,17.08
2023-05-05T23:54:16.077Z,11.75
2023-05-05T23:56:21.581Z,15.85
2023-05-05T23:58:26.682Z,14.10
